sensor_id;sensor_type;location;lat;lon;timestamp;temperature;humidity
11126;DHT22;5617;54.046;10.676;2023-12-20T00:00:48;6.20;99.90
11126;DHT22;5617;54.046;10.676;2023-12-20T00:02:57;6.20;99.90
11126;DHT22;5617;54.046;10.676;2023-12-20T00:05:06;6.20;99.90
11126;DHT22;5617;54.046;10.676;2023-12-20T00:07:16;6.20;99.90
11126;DHT22;5617;54.046;10.676;2023-12-20T00:09:24;6.20;99.90
11126;DHT22;5617;54.046;10.676;2023-12-20T00:11:32;6.20;99.90
11126;DHT22;5617;54.046;10.676;2023-12-20T00:13:40;6.20;99.90
11126;DHT22;5617;54.046;10.676;2023-12-20T00:15:51;6.20;99.90
11126;DHT22;5617;54.046;10.676;2023-12-20T00:17:58;6.20;99.90
11126;DHT22;5617;54.046;10.676;2023-12-20T00:20:07;6.20;99.90
11126;DHT22;5617;54.046;10.676;2023-12-20T00:22:17;6.20;99.90
11126;DHT22;5617;54.046;10.676;2023-12-20T00:24:25;6.20;99.90
11126;DHT22;5617;54.046;10.676;2023-12-20T00:26:33;6.20;99.90
11126;DHT22;5617;54.046;10.676;2023-12-20T00:28:41;6.30;99.90
11126;DHT22;5617;54.046;10.676;2023-12-20T00:30:49;6.30;99.90
11126;DHT22;5617;54.046;10.676;2023-12-20T00:32:56;6.30;99.90
11126;DHT22;5617;54.046;10.676;2023-12-20T00:35:06;6.30;99.90
11126;DHT22;5617;54.046;10.676;2023-12-20T00:37:13;6.30;99.90
11126;DHT22;5617;54.046;10.676;2023-12-20T00:39:23;6.30;99.90
11126;DHT22;5617;54.046;10.676;2023-12-20T00:41:31;6.30;99.90
11126;DHT22;5617;54.046;10.676;2023-12-20T00:43:39;6.30;99.90
11126;DHT22;5617;54.046;10.676;2023-12-20T00:45:47;6.30;99.90
11126;DHT22;5617;54.046;10.676;2023-12-20T00:47:55;6.30;99.90
11126;DHT22;5617;54.046;10.676;2023-12-20T00:50:04;6.30;99.90
11126;DHT22;5617;54.046;10.676;2023-12-20T00:52:12;6.30;99.90
11126;DHT22;5617;54.046;10.676;2023-12-20T00:54:23;6.20;99.90
11126;DHT22;5617;54.046;10.676;2023-12-20T00:56:32;6.20;99.90
11126;DHT22;5617;54.046;10.676;2023-12-20T00:58:40;6.30;99.90
11126;DHT22;5617;54.046;10.676;2023-12-20T01:00:48;6.30;99.90
11126;DHT22;5617;54.046;10.676;2023-12-20T01:02:55;6.20;99.90
11126;DHT22;5617;54.046;10.676;2023-12-20T01:05:04;6.20;99.90
11126;DHT22;5617;54.046;10.676;2023-12-20T01:07:11;6.30;99.90
11126;DHT22;5617;54.046;10.676;2023-12-20T01:09:19;6.30;99.90
11126;DHT22;5617;54.046;10.676;2023-12-20T01:11:31;6.30;99.90
11126;DHT22;5617;54.046;10.676;2023-12-20T01:13:39;6.30;99.90
11126;DHT22;5617;54.046;10.676;2023-12-20T01:15:46;6.30;99.90
11126;DHT22;5617;54.046;10.676;2023-12-20T01:17:55;6.30;99.90
11126;DHT22;5617;54.046;10.676;2023-12-20T01:20:07;6.30;99.90
11126;DHT22;5617;54.046;10.676;2023-12-20T01:22:15;6.30;99.90
11126;DHT22;5617;54.046;10.676;2023-12-20T01:24:23;6.30;99.90
11126;DHT22;5617;54.046;10.676;2023-12-20T01:26:33;6.30;99.90
11126;DHT22;5617;54.046;10.676;2023-12-20T01:28:41;6.30;99.90
11126;DHT22;5617;54.046;10.676;2023-12-20T01:30:49;6.30;99.90
11126;DHT22;5617;54.046;10.676;2023-12-20T01:32:59;6.40;99.90
11126;DHT22;5617;54.046;10.676;2023-12-20T01:35:08;6.40;99.90
11126;DHT22;5617;54.046;10.676;2023-12-20T01:37:16;6.40;99.90
11126;DHT22;5617;54.046;10.676;2023-12-20T01:39:25;6.40;99.90
11126;DHT22;5617;54.046;10.676;2023-12-20T01:41:39;6.40;99.90
11126;DHT22;5617;54.046;10.676;2023-12-20T01:43:47;6.40;99.90
11126;DHT22;5617;54.046;10.676;2023-12-20T01:45:59;6.40;99.90
11126;DHT22;5617;54.046;10.676;2023-12-20T01:48:08;6.40;99.90
11126;DHT22;5617;54.046;10.676;2023-12-20T01:50:16;6.40;99.90
11126;DHT22;5617;54.046;10.676;2023-12-20T01:52:25;6.30;99.90
11126;DHT22;5617;54.046;10.676;2023-12-20T01:54:34;6.30;99.90
11126;DHT22;5617;54.046;10.676;2023-12-20T01:56:45;6.30;99.90
11126;DHT22;5617;54.046;10.676;2023-12-20T01:58:56;6.30;99.90
11126;DHT22;5617;54.046;10.676;2023-12-20T02:01:05;6.30;99.90
11126;DHT22;5617;54.046;10.676;2023-12-20T02:03:16;6.30;99.90
11126;DHT22;5617;54.046;10.676;2023-12-20T02:05:25;6.30;99.90
11126;DHT22;5617;54.046;10.676;2023-12-20T02:07:34;6.30;99.90
11126;DHT22;5617;54.046;10.676;2023-12-20T02:09:42;6.30;99.90
11126;DHT22;5617;54.046;10.676;2023-12-20T02:11:52;6.30;99.90
11126;DHT22;5617;54.046;10.676;2023-12-20T02:14:00;6.30;99.90
11126;DHT22;5617;54.046;10.676;2023-12-20T02:16:08;6.30;99.90
11126;DHT22;5617;54.046;10.676;2023-12-20T02:18:16;6.30;99.90
11126;DHT22;5617;54.046;10.676;2023-12-20T02:20:27;6.30;99.90
11126;DHT22;5617;54.046;10.676;2023-12-20T02:22:36;6.30;99.90
11126;DHT22;5617;54.046;10.676;2023-12-20T02:24:44;6.30;99.90
11126;DHT22;5617;54.046;10.676;2023-12-20T02:26:52;6.30;99.90
11126;DHT22;5617;54.046;10.676;2023-12-20T02:29:00;6.30;99.90
11126;DHT22;5617;54.046;10.676;2023-12-20T02:31:09;6.20;99.90
11126;DHT22;5617;54.046;10.676;2023-12-20T02:33:17;6.20;99.90
11126;DHT22;5617;54.046;10.676;2023-12-20T02:35:24;6.20;99.90
11126;DHT22;5617;54.046;10.676;2023-12-20T02:37:33;6.20;99.90
11126;DHT22;5617;54.046;10.676;2023-12-20T02:39:42;6.20;99.90
11126;DHT22;5617;54.046;10.676;2023-12-20T02:41:50;6.20;99.90
11126;DHT22;5617;54.046;10.676;2023-12-20T02:43:58;6.20;99.90
11126;DHT22;5617;54.046;10.676;2023-12-20T02:46:06;6.20;99.90
11126;DHT22;5617;54.046;10.676;2023-12-20T02:48:14;6.20;99.90
11126;DHT22;5617;54.046;10.676;2023-12-20T02:50:22;6.30;99.90
11126;DHT22;5617;54.046;10.676;2023-12-20T02:52:30;6.30;99.90
11126;DHT22;5617;54.046;10.676;2023-12-20T02:54:38;6.30;99.90
11126;DHT22;5617;54.046;10.676;2023-12-20T02:56:49;6.30;99.90
11126;DHT22;5617;54.046;10.676;2023-12-20T02:58:57;6.30;99.90
11126;DHT22;5617;54.046;10.676;2023-12-20T03:01:08;6.30;99.90
11126;DHT22;5617;54.046;10.676;2023-12-20T03:03:16;6.30;99.90
11126;DHT22;5617;54.046;10.676;2023-12-20T03:05:24;6.30;99.90
11126;DHT22;5617;54.046;10.676;2023-12-20T03:07:33;6.30;99.90
11126;DHT22;5617;54.046;10.676;2023-12-20T03:09:41;6.30;99.90
11126;DHT22;5617;54.046;10.676;2023-12-20T03:12:11;6.30;99.90
11126;DHT22;5617;54.046;10.676;2023-12-20T03:14:20;6.30;99.90
11126;DHT22;5617;54.046;10.676;2023-12-20T03:16:28;6.30;99.90
11126;DHT22;5617;54.046;10.676;2023-12-20T03:18:43;6.30;99.90
11126;DHT22;5617;54.046;10.676;2023-12-20T03:20:51;6.30;99.90
11126;DHT22;5617;54.046;10.676;2023-12-20T03:22:59;6.30;99.90
11126;DHT22;5617;54.046;10.676;2023-12-20T03:25:08;6.30;99.90
11126;DHT22;5617;54.046;10.676;2023-12-20T03:27:17;6.30;99.90
11126;DHT22;5617;54.046;10.676;2023-12-20T03:29:24;6.30;99.90
11126;DHT22;5617;54.046;10.676;2023-12-20T03:31:33;6.30;99.90
11126;DHT22;5617;54.046;10.676;2023-12-20T03:33:41;6.30;99.90
11126;DHT22;5617;54.046;10.676;2023-12-20T03:35:48;6.30;99.90
11126;DHT22;5617;54.046;10.676;2023-12-20T03:37:56;6.30;99.90
11126;DHT22;5617;54.046;10.676;2023-12-20T03:40:07;6.30;99.90
11126;DHT22;5617;54.046;10.676;2023-12-20T03:42:15;6.40;99.90
11126;DHT22;5617;54.046;10.676;2023-12-20T03:44:24;6.30;99.90
11126;DHT22;5617;54.046;10.676;2023-12-20T03:46:34;6.40;99.90
11126;DHT22;5617;54.046;10.676;2023-12-20T03:48:42;6.40;99.90
11126;DHT22;5617;54.046;10.676;2023-12-20T03:50:50;6.40;99.90
11126;DHT22;5617;54.046;10.676;2023-12-20T03:52:58;6.40;99.90
11126;DHT22;5617;54.046;10.676;2023-12-20T03:55:06;6.40;99.90
11126;DHT22;5617;54.046;10.676;2023-12-20T03:57:14;6.40;99.90
11126;DHT22;5617;54.046;10.676;2023-12-20T03:59:24;6.40;99.90
11126;DHT22;5617;54.046;10.676;2023-12-20T04:01:32;6.40;99.90
11126;DHT22;5617;54.046;10.676;2023-12-20T04:03:40;6.40;99.90
11126;DHT22;5617;54.046;10.676;2023-12-20T04:05:48;6.40;99.90
11126;DHT22;5617;54.046;10.676;2023-12-20T04:07:55;6.40;99.90
11126;DHT22;5617;54.046;10.676;2023-12-20T04:10:04;6.40;99.90
11126;DHT22;5617;54.046;10.676;2023-12-20T04:12:13;6.50;99.90
11126;DHT22;5617;54.046;10.676;2023-12-20T04:14:20;6.50;99.90
11126;DHT22;5617;54.046;10.676;2023-12-20T04:16:30;6.50;99.90
11126;DHT22;5617;54.046;10.676;2023-12-20T04:18:38;6.50;99.90
11126;DHT22;5617;54.046;10.676;2023-12-20T04:20:46;6.50;99.90
11126;DHT22;5617;54.046;10.676;2023-12-20T04:22:54;6.50;99.90
11126;DHT22;5617;54.046;10.676;2023-12-20T04:25:04;6.50;99.90
11126;DHT22;5617;54.046;10.676;2023-12-20T04:27:13;6.50;99.90
11126;DHT22;5617;54.046;10.676;2023-12-20T04:29:21;6.50;99.90
11126;DHT22;5617;54.046;10.676;2023-12-20T04:31:30;6.50;99.90
11126;DHT22;5617;54.046;10.676;2023-12-20T04:33:38;6.50;99.90
11126;DHT22;5617;54.046;10.676;2023-12-20T04:35:46;6.50;99.90
11126;DHT22;5617;54.046;10.676;2023-12-20T04:37:54;6.50;99.90
11126;DHT22;5617;54.046;10.676;2023-12-20T04:40:03;6.50;99.90
11126;DHT22;5617;54.046;10.676;2023-12-20T04:42:12;6.50;99.90
11126;DHT22;5617;54.046;10.676;2023-12-20T04:44:20;6.50;99.90
11126;DHT22;5617;54.046;10.676;2023-12-20T04:46:29;6.50;99.90
11126;DHT22;5617;54.046;10.676;2023-12-20T04:48:38;6.50;99.90
11126;DHT22;5617;54.046;10.676;2023-12-20T04:50:46;6.50;99.90
11126;DHT22;5617;54.046;10.676;2023-12-20T04:52:54;6.50;99.90
11126;DHT22;5617;54.046;10.676;2023-12-20T04:55:02;6.60;99.90
11126;DHT22;5617;54.046;10.676;2023-12-20T04:57:10;6.60;99.90
11126;DHT22;5617;54.046;10.676;2023-12-20T04:59:18;6.60;99.90
11126;DHT22;5617;54.046;10.676;2023-12-20T05:01:27;6.60;99.90
11126;DHT22;5617;54.046;10.676;2023-12-20T05:03:36;6.60;99.90
11126;DHT22;5617;54.046;10.676;2023-12-20T05:05:47;6.60;99.90
11126;DHT22;5617;54.046;10.676;2023-12-20T05:07:55;6.60;99.90
11126;DHT22;5617;54.046;10.676;2023-12-20T05:10:02;6.50;99.90
11126;DHT22;5617;54.046;10.676;2023-12-20T05:12:15;6.50;99.90
11126;DHT22;5617;54.046;10.676;2023-12-20T05:14:23;6.50;99.90
11126;DHT22;5617;54.046;10.676;2023-12-20T05:16:31;6.50;99.90
11126;DHT22;5617;54.046;10.676;2023-12-20T05:18:40;6.50;99.90
11126;DHT22;5617;54.046;10.676;2023-12-20T05:20:48;6.50;99.90
11126;DHT22;5617;54.046;10.676;2023-12-20T05:22:56;6.50;99.90
11126;DHT22;5617;54.046;10.676;2023-12-20T05:25:05;6.50;99.90
11126;DHT22;5617;54.046;10.676;2023-12-20T05:27:13;6.50;99.90
11126;DHT22;5617;54.046;10.676;2023-12-20T05:29:22;6.50;99.90
11126;DHT22;5617;54.046;10.676;2023-12-20T05:31:31;6.50;99.90
11126;DHT22;5617;54.046;10.676;2023-12-20T05:33:40;6.50;99.90
11126;DHT22;5617;54.046;10.676;2023-12-20T05:35:48;6.50;99.90
11126;DHT22;5617;54.046;10.676;2023-12-20T05:37:56;6.50;99.90
11126;DHT22;5617;54.046;10.676;2023-12-20T05:40:05;6.40;99.90
11126;DHT22;5617;54.046;10.676;2023-12-20T05:42:14;6.40;99.90
11126;DHT22;5617;54.046;10.676;2023-12-20T05:44:22;6.40;99.90
11126;DHT22;5617;54.046;10.676;2023-12-20T05:46:30;6.40;99.90
11126;DHT22;5617;54.046;10.676;2023-12-20T05:48:40;6.40;99.90
11126;DHT22;5617;54.046;10.676;2023-12-20T05:50:48;6.40;99.90
11126;DHT22;5617;54.046;10.676;2023-12-20T05:52:56;6.40;99.90
11126;DHT22;5617;54.046;10.676;2023-12-20T05:55:04;6.40;99.90
11126;DHT22;5617;54.046;10.676;2023-12-20T05:57:12;6.40;99.90
11126;DHT22;5617;54.046;10.676;2023-12-20T05:59:20;6.40;99.90
11126;DHT22;5617;54.046;10.676;2023-12-20T06:01:29;6.40;99.90
11126;DHT22;5617;54.046;10.676;2023-12-20T06:03:39;6.40;99.90
11126;DHT22;5617;54.046;10.676;2023-12-20T06:05:48;6.40;99.90
11126;DHT22;5617;54.046;10.676;2023-12-20T06:08:00;6.50;99.90
11126;DHT22;5617;54.046;10.676;2023-12-20T06:10:09;6.50;99.90
11126;DHT22;5617;54.046;10.676;2023-12-20T06:12:18;6.50;99.90
11126;DHT22;5617;54.046;10.676;2023-12-20T06:14:26;6.50;99.90
11126;DHT22;5617;54.046;10.676;2023-12-20T06:16:34;6.50;99.90
11126;DHT22;5617;54.046;10.676;2023-12-20T06:18:44;6.50;99.90
11126;DHT22;5617;54.046;10.676;2023-12-20T06:20:52;6.50;99.90
11126;DHT22;5617;54.046;10.676;2023-12-20T06:23:00;6.50;99.90
11126;DHT22;5617;54.046;10.676;2023-12-20T06:25:08;6.50;99.90
11126;DHT22;5617;54.046;10.676;2023-12-20T06:27:16;6.50;99.90
11126;DHT22;5617;54.046;10.676;2023-12-20T06:29:24;6.50;99.90
11126;DHT22;5617;54.046;10.676;2023-12-20T06:31:32;6.50;99.90
11126;DHT22;5617;54.046;10.676;2023-12-20T06:33:40;6.50;99.90
11126;DHT22;5617;54.046;10.676;2023-12-20T06:35:50;6.50;99.90
11126;DHT22;5617;54.046;10.676;2023-12-20T06:37:58;6.50;99.90
11126;DHT22;5617;54.046;10.676;2023-12-20T06:40:07;6.50;99.90
11126;DHT22;5617;54.046;10.676;2023-12-20T06:42:25;6.40;99.90
11126;DHT22;5617;54.046;10.676;2023-12-20T06:44:33;6.40;99.90
11126;DHT22;5617;54.046;10.676;2023-12-20T06:46:41;6.40;99.90
11126;DHT22;5617;54.046;10.676;2023-12-20T06:48:49;6.40;99.90
11126;DHT22;5617;54.046;10.676;2023-12-20T06:50:59;6.40;99.90
11126;DHT22;5617;54.046;10.676;2023-12-20T06:53:09;6.40;99.90
11126;DHT22;5617;54.046;10.676;2023-12-20T06:55:17;6.50;99.90
11126;DHT22;5617;54.046;10.676;2023-12-20T06:57:24;6.50;99.90
11126;DHT22;5617;54.046;10.676;2023-12-20T06:59:33;6.50;99.90
11126;DHT22;5617;54.046;10.676;2023-12-20T07:01:41;6.50;99.90
11126;DHT22;5617;54.046;10.676;2023-12-20T07:03:49;6.50;99.90
11126;DHT22;5617;54.046;10.676;2023-12-20T07:05:56;6.50;99.90
11126;DHT22;5617;54.046;10.676;2023-12-20T07:08:06;6.50;99.90
11126;DHT22;5617;54.046;10.676;2023-12-20T07:10:14;6.60;99.90
11126;DHT22;5617;54.046;10.676;2023-12-20T07:12:23;6.60;99.90
11126;DHT22;5617;54.046;10.676;2023-12-20T07:14:31;6.60;99.90
11126;DHT22;5617;54.046;10.676;2023-12-20T07:16:39;6.60;99.90
11126;DHT22;5617;54.046;10.676;2023-12-20T07:18:47;6.60;99.90
11126;DHT22;5617;54.046;10.676;2023-12-20T07:20:55;6.60;99.90
11126;DHT22;5617;54.046;10.676;2023-12-20T07:23:03;6.60;99.90
11126;DHT22;5617;54.046;10.676;2023-12-20T07:25:12;6.60;99.90
11126;DHT22;5617;54.046;10.676;2023-12-20T07:27:20;6.60;99.90
11126;DHT22;5617;54.046;10.676;2023-12-20T07:29:31;6.60;99.90
11126;DHT22;5617;54.046;10.676;2023-12-20T07:31:39;6.70;99.90
11126;DHT22;5617;54.046;10.676;2023-12-20T07:33:47;6.70;99.90
11126;DHT22;5617;54.046;10.676;2023-12-20T07:35:55;6.60;99.90
11126;DHT22;5617;54.046;10.676;2023-12-20T07:38:03;6.70;99.90
11126;DHT22;5617;54.046;10.676;2023-12-20T07:40:13;6.70;99.90
11126;DHT22;5617;54.046;10.676;2023-12-20T07:42:23;6.70;99.90
11126;DHT22;5617;54.046;10.676;2023-12-20T07:44:32;6.60;99.90
11126;DHT22;5617;54.046;10.676;2023-12-20T07:46:40;6.60;99.90
11126;DHT22;5617;54.046;10.676;2023-12-20T07:48:48;6.60;99.90
11126;DHT22;5617;54.046;10.676;2023-12-20T07:50:56;6.60;99.90
11126;DHT22;5617;54.046;10.676;2023-12-20T07:53:04;6.60;99.90
11126;DHT22;5617;54.046;10.676;2023-12-20T07:55:13;6.60;99.90
11126;DHT22;5617;54.046;10.676;2023-12-20T07:57:23;6.60;99.90
11126;DHT22;5617;54.046;10.676;2023-12-20T07:59:31;6.60;99.90
11126;DHT22;5617;54.046;10.676;2023-12-20T08:01:39;6.50;99.90
11126;DHT22;5617;54.046;10.676;2023-12-20T08:03:48;6.50;99.90
11126;DHT22;5617;54.046;10.676;2023-12-20T08:05:57;6.50;99.90
11126;DHT22;5617;54.046;10.676;2023-12-20T08:08:06;6.60;99.90
11126;DHT22;5617;54.046;10.676;2023-12-20T08:10:16;6.60;99.90
11126;DHT22;5617;54.046;10.676;2023-12-20T08:12:28;6.50;99.90
11126;DHT22;5617;54.046;10.676;2023-12-20T08:14:36;6.50;99.90
11126;DHT22;5617;54.046;10.676;2023-12-20T08:16:45;6.50;99.90
11126;DHT22;5617;54.046;10.676;2023-12-20T08:18:53;6.50;99.90
11126;DHT22;5617;54.046;10.676;2023-12-20T08:21:01;6.50;99.90
11126;DHT22;5617;54.046;10.676;2023-12-20T08:23:11;6.50;99.90
11126;DHT22;5617;54.046;10.676;2023-12-20T08:25:20;6.50;99.90
11126;DHT22;5617;54.046;10.676;2023-12-20T08:27:39;6.60;99.90
11126;DHT22;5617;54.046;10.676;2023-12-20T08:29:47;6.60;99.90
11126;DHT22;5617;54.046;10.676;2023-12-20T08:31:57;6.60;99.90
11126;DHT22;5617;54.046;10.676;2023-12-20T08:34:05;6.60;99.90
11126;DHT22;5617;54.046;10.676;2023-12-20T08:36:16;6.70;99.90
11126;DHT22;5617;54.046;10.676;2023-12-20T08:38:25;6.50;99.90
11126;DHT22;5617;54.046;10.676;2023-12-20T08:40:34;6.50;99.90
11126;DHT22;5617;54.046;10.676;2023-12-20T08:42:42;6.60;99.90
11126;DHT22;5617;54.046;10.676;2023-12-20T08:44:51;6.60;99.90
11126;DHT22;5617;54.046;10.676;2023-12-20T08:46:59;6.60;99.90
11126;DHT22;5617;54.046;10.676;2023-12-20T08:49:07;6.60;99.90
11126;DHT22;5617;54.046;10.676;2023-12-20T08:51:17;6.70;99.90
11126;DHT22;5617;54.046;10.676;2023-12-20T08:53:31;6.70;99.90
11126;DHT22;5617;54.046;10.676;2023-12-20T08:55:42;6.80;99.90
11126;DHT22;5617;54.046;10.676;2023-12-20T08:57:51;6.70;99.90
11126;DHT22;5617;54.046;10.676;2023-12-20T08:59:59;6.70;99.90
11126;DHT22;5617;54.046;10.676;2023-12-20T09:02:07;6.70;99.90
11126;DHT22;5617;54.046;10.676;2023-12-20T09:04:15;6.70;99.90
11126;DHT22;5617;54.046;10.676;2023-12-20T09:06:25;6.70;99.90
11126;DHT22;5617;54.046;10.676;2023-12-20T09:08:33;6.70;99.90
11126;DHT22;5617;54.046;10.676;2023-12-20T09:10:43;6.80;99.90
11126;DHT22;5617;54.046;10.676;2023-12-20T09:12:52;6.70;99.90
11126;DHT22;5617;54.046;10.676;2023-12-20T09:15:04;6.80;99.90
11126;DHT22;5617;54.046;10.676;2023-12-20T09:17:15;6.80;99.90
11126;DHT22;5617;54.046;10.676;2023-12-20T09:19:23;6.80;99.90
11126;DHT22;5617;54.046;10.676;2023-12-20T09:21:31;6.80;99.90
11126;DHT22;5617;54.046;10.676;2023-12-20T09:23:39;6.80;99.90
11126;DHT22;5617;54.046;10.676;2023-12-20T09:25:49;6.80;99.90
11126;DHT22;5617;54.046;10.676;2023-12-20T09:28:00;6.80;99.90
11126;DHT22;5617;54.046;10.676;2023-12-20T09:30:09;6.70;99.90
11126;DHT22;5617;54.046;10.676;2023-12-20T09:32:16;6.80;99.90
11126;DHT22;5617;54.046;10.676;2023-12-20T09:34:24;6.80;99.90
11126;DHT22;5617;54.046;10.676;2023-12-20T09:36:36;6.80;99.90
11126;DHT22;5617;54.046;10.676;2023-12-20T09:38:53;6.80;99.90
11126;DHT22;5617;54.046;10.676;2023-12-20T09:41:02;6.70;99.90
11126;DHT22;5617;54.046;10.676;2023-12-20T09:43:14;6.70;99.90
11126;DHT22;5617;54.046;10.676;2023-12-20T09:45:23;6.70;99.90
11126;DHT22;5617;54.046;10.676;2023-12-20T09:47:33;6.70;99.90
11126;DHT22;5617;54.046;10.676;2023-12-20T09:49:42;6.70;99.90
11126;DHT22;5617;54.046;10.676;2023-12-20T09:51:51;6.70;99.90
11126;DHT22;5617;54.046;10.676;2023-12-20T09:53:58;6.70;99.90
11126;DHT22;5617;54.046;10.676;2023-12-20T09:56:09;6.60;99.90
11126;DHT22;5617;54.046;10.676;2023-12-20T09:58:17;6.60;99.90
11126;DHT22;5617;54.046;10.676;2023-12-20T10:00:25;6.60;99.90
11126;DHT22;5617;54.046;10.676;2023-12-20T10:02:34;6.60;99.90
11126;DHT22;5617;54.046;10.676;2023-12-20T10:04:47;6.60;99.90
11126;DHT22;5617;54.046;10.676;2023-12-20T10:06:55;6.60;99.90
11126;DHT22;5617;54.046;10.676;2023-12-20T10:09:04;6.60;99.90
11126;DHT22;5617;54.046;10.676;2023-12-20T10:11:14;6.50;99.90
11126;DHT22;5617;54.046;10.676;2023-12-20T10:13:25;6.50;99.90
11126;DHT22;5617;54.046;10.676;2023-12-20T10:15:34;6.50;99.90
11126;DHT22;5617;54.046;10.676;2023-12-20T10:17:42;6.50;99.90
11126;DHT22;5617;54.046;10.676;2023-12-20T10:19:50;6.50;99.90
11126;DHT22;5617;54.046;10.676;2023-12-20T10:21:59;6.50;99.90
11126;DHT22;5617;54.046;10.676;2023-12-20T10:24:07;6.40;99.90
11126;DHT22;5617;54.046;10.676;2023-12-20T10:26:20;6.40;99.90
11126;DHT22;5617;54.046;10.676;2023-12-20T10:28:33;6.40;99.90
11126;DHT22;5617;54.046;10.676;2023-12-20T10:30:42;6.40;99.90
11126;DHT22;5617;54.046;10.676;2023-12-20T10:32:50;6.40;99.90
11126;DHT22;5617;54.046;10.676;2023-12-20T10:34:58;6.40;99.90
11126;DHT22;5617;54.046;10.676;2023-12-20T10:37:07;6.40;99.90
11126;DHT22;5617;54.046;10.676;2023-12-20T10:39:15;6.40;99.90
11126;DHT22;5617;54.046;10.676;2023-12-20T10:41:30;6.50;99.90
11126;DHT22;5617;54.046;10.676;2023-12-20T10:43:38;6.40;99.90
11126;DHT22;5617;54.046;10.676;2023-12-20T10:45:47;6.40;99.90
11126;DHT22;5617;54.046;10.676;2023-12-20T10:47:56;6.50;99.90
11126;DHT22;5617;54.046;10.676;2023-12-20T10:50:07;6.50;99.90
11126;DHT22;5617;54.046;10.676;2023-12-20T10:52:17;6.60;99.90
11126;DHT22;5617;54.046;10.676;2023-12-20T10:54:25;6.60;99.90
11126;DHT22;5617;54.046;10.676;2023-12-20T10:56:35;6.60;99.90
11126;DHT22;5617;54.046;10.676;2023-12-20T10:58:45;6.60;99.90
11126;DHT22;5617;54.046;10.676;2023-12-20T11:00:58;6.60;99.90
11126;DHT22;5617;54.046;10.676;2023-12-20T11:03:09;6.70;99.90
11126;DHT22;5617;54.046;10.676;2023-12-20T11:05:27;6.70;99.90
11126;DHT22;5617;54.046;10.676;2023-12-20T11:07:39;6.80;99.90
11126;DHT22;5617;54.046;10.676;2023-12-20T11:09:56;6.90;99.90
11126;DHT22;5617;54.046;10.676;2023-12-20T11:12:12;6.90;99.90
11126;DHT22;5617;54.046;10.676;2023-12-20T11:14:25;6.90;99.90
11126;DHT22;5617;54.046;10.676;2023-12-20T11:16:38;6.80;99.90
11126;DHT22;5617;54.046;10.676;2023-12-20T11:18:56;6.80;99.90
11126;DHT22;5617;54.046;10.676;2023-12-20T11:21:05;6.80;99.90
11126;DHT22;5617;54.046;10.676;2023-12-20T11:23:13;6.70;99.90
11126;DHT22;5617;54.046;10.676;2023-12-20T11:25:21;6.70;99.90
11126;DHT22;5617;54.046;10.676;2023-12-20T11:27:30;6.70;99.90
11126;DHT22;5617;54.046;10.676;2023-12-20T11:29:39;6.70;99.90
11126;DHT22;5617;54.046;10.676;2023-12-20T11:31:47;6.80;99.90
11126;DHT22;5617;54.046;10.676;2023-12-20T11:34:13;7.00;99.90
11126;DHT22;5617;54.046;10.676;2023-12-20T11:36:25;7.10;99.90
11126;DHT22;5617;54.046;10.676;2023-12-20T11:38:36;7.10;99.90
11126;DHT22;5617;54.046;10.676;2023-12-20T11:40:48;7.10;99.90
11126;DHT22;5617;54.046;10.676;2023-12-20T11:42:59;7.00;99.90
11126;DHT22;5617;54.046;10.676;2023-12-20T11:45:09;7.00;99.90
11126;DHT22;5617;54.046;10.676;2023-12-20T11:47:18;6.90;99.90
11126;DHT22;5617;54.046;10.676;2023-12-20T11:49:29;6.90;99.90
11126;DHT22;5617;54.046;10.676;2023-12-20T11:51:40;7.00;99.90
11126;DHT22;5617;54.046;10.676;2023-12-20T11:53:51;7.00;99.90
11126;DHT22;5617;54.046;10.676;2023-12-20T11:56:00;7.00;99.90
11126;DHT22;5617;54.046;10.676;2023-12-20T11:58:11;7.10;99.90
11126;DHT22;5617;54.046;10.676;2023-12-20T12:00:18;7.10;99.90
11126;DHT22;5617;54.046;10.676;2023-12-20T12:02:27;7.10;99.90
11126;DHT22;5617;54.046;10.676;2023-12-20T12:04:35;7.00;99.90
11126;DHT22;5617;54.046;10.676;2023-12-20T12:06:43;7.00;99.90
11126;DHT22;5617;54.046;10.676;2023-12-20T12:08:51;7.00;99.90
11126;DHT22;5617;54.046;10.676;2023-12-20T12:10:59;7.00;99.90
11126;DHT22;5617;54.046;10.676;2023-12-20T12:13:08;7.10;99.90
11126;DHT22;5617;54.046;10.676;2023-12-20T12:15:17;7.00;99.90
11126;DHT22;5617;54.046;10.676;2023-12-20T12:17:26;7.10;99.90
11126;DHT22;5617;54.046;10.676;2023-12-20T12:19:34;7.10;99.90
11126;DHT22;5617;54.046;10.676;2023-12-20T12:21:44;7.20;99.90
11126;DHT22;5617;54.046;10.676;2023-12-20T12:23:52;7.20;99.90
11126;DHT22;5617;54.046;10.676;2023-12-20T12:26:04;7.20;99.90
11126;DHT22;5617;54.046;10.676;2023-12-20T12:28:12;7.20;99.90
11126;DHT22;5617;54.046;10.676;2023-12-20T12:30:21;7.20;99.90
11126;DHT22;5617;54.046;10.676;2023-12-20T12:32:28;7.30;99.90
11126;DHT22;5617;54.046;10.676;2023-12-20T12:34:37;7.50;99.90
11126;DHT22;5617;54.046;10.676;2023-12-20T12:36:45;7.50;99.90
11126;DHT22;5617;54.046;10.676;2023-12-20T12:38:56;7.60;99.90
11126;DHT22;5617;54.046;10.676;2023-12-20T12:41:06;7.60;99.90
11126;DHT22;5617;54.046;10.676;2023-12-20T12:43:14;7.50;99.90
11126;DHT22;5617;54.046;10.676;2023-12-20T12:45:24;7.50;99.90
11126;DHT22;5617;54.046;10.676;2023-12-20T12:47:34;7.40;99.90
11126;DHT22;5617;54.046;10.676;2023-12-20T12:49:42;7.30;99.90
11126;DHT22;5617;54.046;10.676;2023-12-20T12:51:53;7.30;99.90
11126;DHT22;5617;54.046;10.676;2023-12-20T12:54:03;7.20;99.90
11126;DHT22;5617;54.046;10.676;2023-12-20T12:56:13;7.30;99.90
11126;DHT22;5617;54.046;10.676;2023-12-20T12:58:22;7.30;99.90
11126;DHT22;5617;54.046;10.676;2023-12-20T13:00:33;7.30;99.90
11126;DHT22;5617;54.046;10.676;2023-12-20T13:02:41;7.30;99.90
11126;DHT22;5617;54.046;10.676;2023-12-20T13:04:50;7.40;99.90
11126;DHT22;5617;54.046;10.676;2023-12-20T13:06:58;7.40;99.90
11126;DHT22;5617;54.046;10.676;2023-12-20T13:09:07;7.40;99.90
11126;DHT22;5617;54.046;10.676;2023-12-20T13:11:16;7.40;99.90
11126;DHT22;5617;54.046;10.676;2023-12-20T13:13:24;7.30;99.90
11126;DHT22;5617;54.046;10.676;2023-12-20T13:15:36;7.30;99.90
11126;DHT22;5617;54.046;10.676;2023-12-20T13:17:45;7.20;99.90
11126;DHT22;5617;54.046;10.676;2023-12-20T13:19:56;7.20;99.90
11126;DHT22;5617;54.046;10.676;2023-12-20T13:22:05;7.20;99.90
11126;DHT22;5617;54.046;10.676;2023-12-20T13:24:14;7.10;99.90
11126;DHT22;5617;54.046;10.676;2023-12-20T13:26:23;7.10;99.90
11126;DHT22;5617;54.046;10.676;2023-12-20T13:28:31;7.00;99.90
11126;DHT22;5617;54.046;10.676;2023-12-20T13:30:40;7.00;99.90
11126;DHT22;5617;54.046;10.676;2023-12-20T13:32:49;7.00;99.90
11126;DHT22;5617;54.046;10.676;2023-12-20T13:34:57;7.00;99.90
11126;DHT22;5617;54.046;10.676;2023-12-20T13:37:05;7.00;99.90
11126;DHT22;5617;54.046;10.676;2023-12-20T13:39:14;7.00;99.90
11126;DHT22;5617;54.046;10.676;2023-12-20T13:41:22;7.00;99.90
11126;DHT22;5617;54.046;10.676;2023-12-20T13:43:30;7.00;99.90
11126;DHT22;5617;54.046;10.676;2023-12-20T13:45:40;7.10;99.90
11126;DHT22;5617;54.046;10.676;2023-12-20T13:47:52;7.10;99.90